<?xml version="1.0" encoding="UTF-8" standalone="no" ?>
<gpx xmlns="http://www.topografix.com/GPX/1/1" xmlns:xsi="http://www.w3.org/2001/XMLSchema-instance" xsi:schemaLocation="http://www.topografix.com/GPX/1/1 http://www.topografix.com/GPX/1/1/gpx.xsd" version="1.1" creator="VisuGPX - https://www.visugpx.com">
  <metadata>
    <name>lembras</name>
    <desc><![CDATA[temps soleil]]></desc>
  </metadata>
  <wpt lat="44.85829" lon="0.50388">
    <ele>30.89</ele>
    <name><![CDATA[MAISON]]></name>
  </wpt>
  <trk>
    <name><![CDATA[CALES: 21 DEC 2013 13:47]]></name>
    <trkseg>
      <trkpt lat="44.85516" lon="0.81192">
        <ele>66.95</ele>
        <time>2013-12-21T12:47:05Z</time>
      </trkpt>
      <trkpt lat="44.85516" lon="0.81189">
        <ele>66.95</ele>
        <time>2013-12-21T12:47:27Z</time>
      </trkpt>
      <trkpt lat="44.85525" lon="0.81187">
        <ele>66.95</ele>
        <time>2013-12-21T12:47:44Z</time>
      </trkpt>
      <trkpt lat="44.85538" lon="0.81185">
        <ele>68.39</ele>
        <time>2013-12-21T12:47:58Z</time>
      </trkpt>
      <trkpt lat="44.85538" lon="0.81198">
        <ele>69.83</ele>
        <time>2013-12-21T12:48:12Z</time>
      </trkpt>
      <trkpt lat="44.85535" lon="0.81196">
        <ele>69.35</ele>
        <time>2013-12-21T12:48:25Z</time>
      </trkpt>
      <trkpt lat="44.85542" lon="0.812">
        <ele>69.83</ele>
        <time>2013-12-21T12:48:40Z</time>
      </trkpt>
      <trkpt lat="44.8554" lon="0.81198">
        <ele>69.83</ele>
        <time>2013-12-21T12:49:01Z</time>
      </trkpt>
      <trkpt lat="44.85546" lon="0.81183">
        <ele>68.39</ele>
        <time>2013-12-21T12:50:20Z</time>
      </trkpt>
      <trkpt lat="44.85546" lon="0.81177">
        <ele>67.43</ele>
        <time>2013-12-21T12:50:33Z</time>
      </trkpt>
      <trkpt lat="44.85546" lon="0.81172">
        <ele>67.91</ele>
        <time>2013-12-21T12:50:55Z</time>
      </trkpt>
      <trkpt lat="44.85542" lon="0.81179">
        <ele>67.91</ele>
        <time>2013-12-21T12:51:22Z</time>
      </trkpt>
      <trkpt lat="44.85544" lon="0.8117">
        <ele>68.39</ele>
        <time>2013-12-21T12:51:32Z</time>
      </trkpt>
      <trkpt lat="44.85538" lon="0.81183">
        <ele>68.39</ele>
        <time>2013-12-21T12:51:47Z</time>
      </trkpt>
      <trkpt lat="44.85544" lon="0.81181">
        <ele>68.39</ele>
        <time>2013-12-21T12:52:01Z</time>
      </trkpt>
      <trkpt lat="44.85548" lon="0.81174">
        <ele>67.91</ele>
        <time>2013-12-21T12:52:15Z</time>
      </trkpt>
      <trkpt lat="44.85548" lon="0.81168">
        <ele>68.39</ele>
        <time>2013-12-21T12:52:26Z</time>
      </trkpt>
      <trkpt lat="44.85551" lon="0.81172">
        <ele>67.91</ele>
        <time>2013-12-21T12:53:14Z</time>
      </trkpt>
      <trkpt lat="44.85542" lon="0.81183">
        <ele>67.91</ele>
        <time>2013-12-21T12:54:09Z</time>
      </trkpt>
      <trkpt lat="44.85542" lon="0.81194">
        <ele>67.91</ele>
        <time>2013-12-21T12:54:30Z</time>
      </trkpt>
      <trkpt lat="44.8554" lon="0.81194">
        <ele>68.39</ele>
        <time>2013-12-21T12:54:46Z</time>
      </trkpt>
      <trkpt lat="44.8554" lon="0.81196">
        <ele>66.95</ele>
        <time>2013-12-21T12:55:07Z</time>
      </trkpt>
      <trkpt lat="44.85542" lon="0.81198">
        <ele>70.79</ele>
        <time>2013-12-21T12:55:13Z</time>
      </trkpt>
      <trkpt lat="44.85542" lon="0.81198">
        <ele>64.55</ele>
        <time>2013-12-21T12:55:16Z</time>
      </trkpt>
      <trkpt lat="44.85542" lon="0.81198">
        <ele>68.39</ele>
        <time>2013-12-21T12:55:27Z</time>
      </trkpt>
      <trkpt lat="44.85544" lon="0.81196">
        <ele>66.47</ele>
        <time>2013-12-21T12:56:07Z</time>
      </trkpt>
      <trkpt lat="44.85542" lon="0.81189">
        <ele>68.39</ele>
        <time>2013-12-21T12:59:12Z</time>
      </trkpt>
      <trkpt lat="44.8554" lon="0.81192">
        <ele>68.39</ele>
        <time>2013-12-21T12:59:26Z</time>
      </trkpt>
      <trkpt lat="44.85542" lon="0.81192">
        <ele>69.35</ele>
        <time>2013-12-21T13:01:09Z</time>
      </trkpt>
      <trkpt lat="44.85544" lon="0.81183">
        <ele>68.39</ele>
        <time>2013-12-21T13:01:16Z</time>
      </trkpt>
      <trkpt lat="44.85538" lon="0.81164">
        <ele>69.35</ele>
        <time>2013-12-21T13:01:31Z</time>
      </trkpt>
      <trkpt lat="44.85529" lon="0.81155">
        <ele>72.72</ele>
        <time>2013-12-21T13:01:41Z</time>
      </trkpt>
      <trkpt lat="44.85523" lon="0.81149">
        <ele>72.72</ele>
        <time>2013-12-21T13:01:48Z</time>
      </trkpt>
      <trkpt lat="44.85514" lon="0.81136">
        <ele>77.52</ele>
        <time>2013-12-21T13:02:02Z</time>
      </trkpt>
      <trkpt lat="44.85505" lon="0.81125">
        <ele>77.04</ele>
        <time>2013-12-21T13:02:13Z</time>
      </trkpt>
      <trkpt lat="44.85495" lon="0.81104">
        <ele>79.45</ele>
        <time>2013-12-21T13:02:36Z</time>
      </trkpt>
      <trkpt lat="44.85508" lon="0.81093">
        <ele>81.85</ele>
        <time>2013-12-21T13:02:49Z</time>
      </trkpt>
      <trkpt lat="44.85516" lon="0.81084">
        <ele>82.33</ele>
        <time>2013-12-21T13:02:58Z</time>
      </trkpt>
      <trkpt lat="44.85523" lon="0.81074">
        <ele>83.29</ele>
        <time>2013-12-21T13:03:08Z</time>
      </trkpt>
      <trkpt lat="44.85538" lon="0.8108">
        <ele>84.73</ele>
        <time>2013-12-21T13:03:21Z</time>
      </trkpt>
      <trkpt lat="44.8563" lon="0.81031">
        <ele>94.35</ele>
        <time>2013-12-21T13:04:57Z</time>
      </trkpt>
      <trkpt lat="44.8566" lon="0.81022">
        <ele>94.83</ele>
        <time>2013-12-21T13:05:23Z</time>
      </trkpt>
      <trkpt lat="44.85699" lon="0.81005">
        <ele>95.79</ele>
        <time>2013-12-21T13:05:56Z</time>
      </trkpt>
      <trkpt lat="44.85724" lon="0.81003">
        <ele>95.31</ele>
        <time>2013-12-21T13:06:16Z</time>
      </trkpt>
      <trkpt lat="44.85806" lon="0.8102">
        <ele>91.46</ele>
        <time>2013-12-21T13:07:24Z</time>
      </trkpt>
      <trkpt lat="44.85832" lon="0.81016">
        <ele>91.46</ele>
        <time>2013-12-21T13:07:44Z</time>
      </trkpt>
      <trkpt lat="44.85851" lon="0.81007">
        <ele>91.46</ele>
        <time>2013-12-21T13:07:59Z</time>
      </trkpt>
      <trkpt lat="44.85859" lon="0.81007">
        <ele>92.42</ele>
        <time>2013-12-21T13:08:07Z</time>
      </trkpt>
      <trkpt lat="44.8589" lon="0.81011">
        <ele>93.39</ele>
        <time>2013-12-21T13:08:32Z</time>
      </trkpt>
      <trkpt lat="44.85911" lon="0.8102">
        <ele>92.42</ele>
        <time>2013-12-21T13:08:47Z</time>
      </trkpt>
      <trkpt lat="44.86016" lon="0.81033">
        <ele>86.18</ele>
        <time>2013-12-21T13:10:13Z</time>
      </trkpt>
      <trkpt lat="44.86031" lon="0.81033">
        <ele>85.21</ele>
        <time>2013-12-21T13:10:23Z</time>
      </trkpt>
      <trkpt lat="44.8607" lon="0.81029">
        <ele>83.29</ele>
        <time>2013-12-21T13:10:53Z</time>
      </trkpt>
      <trkpt lat="44.86134" lon="0.81011">
        <ele>79.93</ele>
        <time>2013-12-21T13:11:47Z</time>
      </trkpt>
      <trkpt lat="44.86149" lon="0.81001">
        <ele>79.45</ele>
        <time>2013-12-21T13:12:04Z</time>
      </trkpt>
      <trkpt lat="44.86164" lon="0.80994">
        <ele>79.45</ele>
        <time>2013-12-21T13:12:19Z</time>
      </trkpt>
      <trkpt lat="44.86244" lon="0.80951">
        <ele>83.77</ele>
        <time>2013-12-21T13:13:28Z</time>
      </trkpt>
      <trkpt lat="44.8631" lon="0.80932">
        <ele>83.29</ele>
        <time>2013-12-21T13:14:22Z</time>
      </trkpt>
      <trkpt lat="44.86342" lon="0.80928">
        <ele>82.81</ele>
        <time>2013-12-21T13:14:46Z</time>
      </trkpt>
      <trkpt lat="44.86366" lon="0.80921">
        <ele>81.37</ele>
        <time>2013-12-21T13:15:07Z</time>
      </trkpt>
      <trkpt lat="44.86387" lon="0.80917">
        <ele>80.41</ele>
        <time>2013-12-21T13:15:22Z</time>
      </trkpt>
      <trkpt lat="44.86407" lon="0.80919">
        <ele>78.48</ele>
        <time>2013-12-21T13:15:35Z</time>
      </trkpt>
      <trkpt lat="44.86422" lon="0.80913">
        <ele>77.52</ele>
        <time>2013-12-21T13:15:48Z</time>
      </trkpt>
      <trkpt lat="44.86428" lon="0.80908">
        <ele>76.08</ele>
        <time>2013-12-21T13:15:54Z</time>
      </trkpt>
      <trkpt lat="44.86437" lon="0.80906">
        <ele>75.6</ele>
        <time>2013-12-21T13:15:59Z</time>
      </trkpt>
      <trkpt lat="44.86469" lon="0.80913">
        <ele>74.16</ele>
        <time>2013-12-21T13:16:22Z</time>
      </trkpt>
      <trkpt lat="44.8652" lon="0.80917">
        <ele>73.2</ele>
        <time>2013-12-21T13:16:59Z</time>
      </trkpt>
      <trkpt lat="44.86535" lon="0.80923">
        <ele>71.76</ele>
        <time>2013-12-21T13:17:13Z</time>
      </trkpt>
      <trkpt lat="44.86557" lon="0.80926">
        <ele>71.76</ele>
        <time>2013-12-21T13:17:30Z</time>
      </trkpt>
      <trkpt lat="44.86598" lon="0.80936">
        <ele>69.35</ele>
        <time>2013-12-21T13:18:00Z</time>
      </trkpt>
      <trkpt lat="44.86619" lon="0.80945">
        <ele>66.95</ele>
        <time>2013-12-21T13:18:17Z</time>
      </trkpt>
      <trkpt lat="44.86656" lon="0.80949">
        <ele>63.58</ele>
        <time>2013-12-21T13:18:46Z</time>
      </trkpt>
      <trkpt lat="44.86705" lon="0.8096">
        <ele>55.89</ele>
        <time>2013-12-21T13:19:29Z</time>
      </trkpt>
      <trkpt lat="44.86722" lon="0.80964">
        <ele>54.93</ele>
        <time>2013-12-21T13:19:42Z</time>
      </trkpt>
      <trkpt lat="44.86806" lon="0.80981">
        <ele>49.16</ele>
        <time>2013-12-21T13:20:44Z</time>
      </trkpt>
      <trkpt lat="44.86851" lon="0.80975">
        <ele>45.8</ele>
        <time>2013-12-21T13:21:19Z</time>
      </trkpt>
      <trkpt lat="44.86872" lon="0.80979">
        <ele>46.28</ele>
        <time>2013-12-21T13:21:36Z</time>
      </trkpt>
      <trkpt lat="44.86907" lon="0.80992">
        <ele>46.28</ele>
        <time>2013-12-21T13:22:03Z</time>
      </trkpt>
      <trkpt lat="44.86932" lon="0.81013">
        <ele>46.28</ele>
        <time>2013-12-21T13:22:25Z</time>
      </trkpt>
      <trkpt lat="44.86939" lon="0.81018">
        <ele>47.24</ele>
        <time>2013-12-21T13:22:36Z</time>
      </trkpt>
      <trkpt lat="44.86941" lon="0.81016">
        <ele>46.76</ele>
        <time>2013-12-21T13:23:03Z</time>
      </trkpt>
      <trkpt lat="44.86947" lon="0.81011">
        <ele>47.24</ele>
        <time>2013-12-21T13:23:08Z</time>
      </trkpt>
      <trkpt lat="44.86958" lon="0.80977">
        <ele>47.24</ele>
        <time>2013-12-21T13:23:28Z</time>
      </trkpt>
      <trkpt lat="44.86971" lon="0.80919">
        <ele>49.65</ele>
        <time>2013-12-21T13:24:01Z</time>
      </trkpt>
      <trkpt lat="44.86999" lon="0.80788">
        <ele>53.49</ele>
        <time>2013-12-21T13:25:40Z</time>
      </trkpt>
      <trkpt lat="44.8699" lon="0.80777">
        <ele>53.01</ele>
        <time>2013-12-21T13:25:49Z</time>
      </trkpt>
      <trkpt lat="44.86973" lon="0.80767">
        <ele>52.53</ele>
        <time>2013-12-21T13:26:02Z</time>
      </trkpt>
      <trkpt lat="44.86956" lon="0.80747">
        <ele>51.09</ele>
        <time>2013-12-21T13:26:18Z</time>
      </trkpt>
      <trkpt lat="44.86943" lon="0.80743">
        <ele>50.61</ele>
        <time>2013-12-21T13:26:30Z</time>
      </trkpt>
      <trkpt lat="44.86926" lon="0.80732">
        <ele>49.16</ele>
        <time>2013-12-21T13:26:45Z</time>
      </trkpt>
      <trkpt lat="44.8687" lon="0.80702">
        <ele>46.28</ele>
        <time>2013-12-21T13:27:30Z</time>
      </trkpt>
      <trkpt lat="44.86857" lon="0.80692">
        <ele>45.32</ele>
        <time>2013-12-21T13:27:42Z</time>
      </trkpt>
      <trkpt lat="44.86844" lon="0.80657">
        <ele>44.84</ele>
        <time>2013-12-21T13:28:04Z</time>
      </trkpt>
      <trkpt lat="44.86832" lon="0.80574">
        <ele>43.88</ele>
        <time>2013-12-21T13:28:51Z</time>
      </trkpt>
      <trkpt lat="44.86825" lon="0.80501">
        <ele>42.92</ele>
        <time>2013-12-21T13:29:30Z</time>
      </trkpt>
      <trkpt lat="44.86812" lon="0.80447">
        <ele>41.47</ele>
        <time>2013-12-21T13:30:04Z</time>
      </trkpt>
      <trkpt lat="44.86814" lon="0.80417">
        <ele>41.47</ele>
        <time>2013-12-21T13:30:21Z</time>
      </trkpt>
      <trkpt lat="44.86827" lon="0.80415">
        <ele>41.47</ele>
        <time>2013-12-21T13:30:35Z</time>
      </trkpt>
      <trkpt lat="44.86851" lon="0.80402">
        <ele>40.99</ele>
        <time>2013-12-21T13:30:55Z</time>
      </trkpt>
      <trkpt lat="44.86872" lon="0.80402">
        <ele>40.99</ele>
        <time>2013-12-21T13:31:13Z</time>
      </trkpt>
      <trkpt lat="44.86892" lon="0.80396">
        <ele>41.47</ele>
        <time>2013-12-21T13:31:29Z</time>
      </trkpt>
      <trkpt lat="44.86924" lon="0.80396">
        <ele>40.51</ele>
        <time>2013-12-21T13:31:56Z</time>
      </trkpt>
      <trkpt lat="44.86965" lon="0.804">
        <ele>42.44</ele>
        <time>2013-12-21T13:32:29Z</time>
      </trkpt>
      <trkpt lat="44.87061" lon="0.80404">
        <ele>41.95</ele>
        <time>2013-12-21T13:33:51Z</time>
      </trkpt>
      <trkpt lat="44.87068" lon="0.80402">
        <ele>42.92</ele>
        <time>2013-12-21T13:33:56Z</time>
      </trkpt>
      <trkpt lat="44.87151" lon="0.80402">
        <ele>41.95</ele>
        <time>2013-12-21T13:35:07Z</time>
      </trkpt>
      <trkpt lat="44.87186" lon="0.80396">
        <ele>42.92</ele>
        <time>2013-12-21T13:35:39Z</time>
      </trkpt>
      <trkpt lat="44.8722" lon="0.80393">
        <ele>42.44</ele>
        <time>2013-12-21T13:36:06Z</time>
      </trkpt>
      <trkpt lat="44.87231" lon="0.80396">
        <ele>43.88</ele>
        <time>2013-12-21T13:36:30Z</time>
      </trkpt>
      <trkpt lat="44.8722" lon="0.80389">
        <ele>42.92</ele>
        <time>2013-12-21T13:37:34Z</time>
      </trkpt>
      <trkpt lat="44.87233" lon="0.80393">
        <ele>44.36</ele>
        <time>2013-12-21T13:37:51Z</time>
      </trkpt>
      <trkpt lat="44.87269" lon="0.80363">
        <ele>42.92</ele>
        <time>2013-12-21T13:38:23Z</time>
      </trkpt>
      <trkpt lat="44.87334" lon="0.8032">
        <ele>42.92</ele>
        <time>2013-12-21T13:39:21Z</time>
      </trkpt>
      <trkpt lat="44.87355" lon="0.8031">
        <ele>41.47</ele>
        <time>2013-12-21T13:39:38Z</time>
      </trkpt>
      <trkpt lat="44.87377" lon="0.80295">
        <ele>41.47</ele>
        <time>2013-12-21T13:39:59Z</time>
      </trkpt>
      <trkpt lat="44.87467" lon="0.80215">
        <ele>39.55</ele>
        <time>2013-12-21T13:41:24Z</time>
      </trkpt>
      <trkpt lat="44.87484" lon="0.80198">
        <ele>40.51</ele>
        <time>2013-12-21T13:41:42Z</time>
      </trkpt>
      <trkpt lat="44.87503" lon="0.80179">
        <ele>38.59</ele>
        <time>2013-12-21T13:42:00Z</time>
      </trkpt>
      <trkpt lat="44.87537" lon="0.80142">
        <ele>38.11</ele>
        <time>2013-12-21T13:42:35Z</time>
      </trkpt>
      <trkpt lat="44.87544" lon="0.80147">
        <ele>39.55</ele>
        <time>2013-12-21T13:42:47Z</time>
      </trkpt>
      <trkpt lat="44.87546" lon="0.80151">
        <ele>38.11</ele>
        <time>2013-12-21T13:43:07Z</time>
      </trkpt>
      <trkpt lat="44.87557" lon="0.80174">
        <ele>39.07</ele>
        <time>2013-12-21T13:43:24Z</time>
      </trkpt>
      <trkpt lat="44.87615" lon="0.8029">
        <ele>40.99</ele>
        <time>2013-12-21T13:44:48Z</time>
      </trkpt>
      <trkpt lat="44.87677" lon="0.80398">
        <ele>43.4</ele>
        <time>2013-12-21T13:46:09Z</time>
      </trkpt>
      <trkpt lat="44.87694" lon="0.80417">
        <ele>42.92</ele>
        <time>2013-12-21T13:46:27Z</time>
      </trkpt>
      <trkpt lat="44.87754" lon="0.80473">
        <ele>44.84</ele>
        <time>2013-12-21T13:47:24Z</time>
      </trkpt>
      <trkpt lat="44.87836" lon="0.80565">
        <ele>45.32</ele>
        <time>2013-12-21T13:48:50Z</time>
      </trkpt>
      <trkpt lat="44.87874" lon="0.80602">
        <ele>44.36</ele>
        <time>2013-12-21T13:49:25Z</time>
      </trkpt>
      <trkpt lat="44.87896" lon="0.80632">
        <ele>44.36</ele>
        <time>2013-12-21T13:49:56Z</time>
      </trkpt>
      <trkpt lat="44.87913" lon="0.80664">
        <ele>43.4</ele>
        <time>2013-12-21T13:50:21Z</time>
      </trkpt>
      <trkpt lat="44.87924" lon="0.80692">
        <ele>43.88</ele>
        <time>2013-12-21T13:50:39Z</time>
      </trkpt>
      <trkpt lat="44.87947" lon="0.80773">
        <ele>44.36</ele>
        <time>2013-12-21T13:51:30Z</time>
      </trkpt>
      <trkpt lat="44.8796" lon="0.80835">
        <ele>47.24</ele>
        <time>2013-12-21T13:52:10Z</time>
      </trkpt>
      <trkpt lat="44.87947" lon="0.80838">
        <ele>48.2</ele>
        <time>2013-12-21T13:52:25Z</time>
      </trkpt>
      <trkpt lat="44.87924" lon="0.80831">
        <ele>50.61</ele>
        <time>2013-12-21T13:52:44Z</time>
      </trkpt>
      <trkpt lat="44.87904" lon="0.80833">
        <ele>52.53</ele>
        <time>2013-12-21T13:53:01Z</time>
      </trkpt>
      <trkpt lat="44.87887" lon="0.8084">
        <ele>53.97</ele>
        <time>2013-12-21T13:53:16Z</time>
      </trkpt>
      <trkpt lat="44.87868" lon="0.80859">
        <ele>56.86</ele>
        <time>2013-12-21T13:53:37Z</time>
      </trkpt>
      <trkpt lat="44.87849" lon="0.80883">
        <ele>58.3</ele>
        <time>2013-12-21T13:54:00Z</time>
      </trkpt>
      <trkpt lat="44.87831" lon="0.80902">
        <ele>60.22</ele>
        <time>2013-12-21T13:54:18Z</time>
      </trkpt>
      <trkpt lat="44.87825" lon="0.80915">
        <ele>59.74</ele>
        <time>2013-12-21T13:54:28Z</time>
      </trkpt>
      <trkpt lat="44.87812" lon="0.80936">
        <ele>60.22</ele>
        <time>2013-12-21T13:54:45Z</time>
      </trkpt>
      <trkpt lat="44.87795" lon="0.80947">
        <ele>60.22</ele>
        <time>2013-12-21T13:55:02Z</time>
      </trkpt>
      <trkpt lat="44.87782" lon="0.80943">
        <ele>60.7</ele>
        <time>2013-12-21T13:55:15Z</time>
      </trkpt>
      <trkpt lat="44.87746" lon="0.80919">
        <ele>60.22</ele>
        <time>2013-12-21T13:55:49Z</time>
      </trkpt>
      <trkpt lat="44.87728" lon="0.8091">
        <ele>60.7</ele>
        <time>2013-12-21T13:56:04Z</time>
      </trkpt>
      <trkpt lat="44.87709" lon="0.80915">
        <ele>60.7</ele>
        <time>2013-12-21T13:56:22Z</time>
      </trkpt>
      <trkpt lat="44.87638" lon="0.80966">
        <ele>60.7</ele>
        <time>2013-12-21T13:57:25Z</time>
      </trkpt>
      <trkpt lat="44.87507" lon="0.81056">
        <ele>63.58</ele>
        <time>2013-12-21T13:59:19Z</time>
      </trkpt>
      <trkpt lat="44.87495" lon="0.81061">
        <ele>63.58</ele>
        <time>2013-12-21T13:59:33Z</time>
      </trkpt>
      <trkpt lat="44.87497" lon="0.81063">
        <ele>64.55</ele>
        <time>2013-12-21T13:59:56Z</time>
      </trkpt>
      <trkpt lat="44.87473" lon="0.81084">
        <ele>64.55</ele>
        <time>2013-12-21T14:00:51Z</time>
      </trkpt>
      <trkpt lat="44.87452" lon="0.81095">
        <ele>64.55</ele>
        <time>2013-12-21T14:01:10Z</time>
      </trkpt>
      <trkpt lat="44.87413" lon="0.81106">
        <ele>64.55</ele>
        <time>2013-12-21T14:01:42Z</time>
      </trkpt>
      <trkpt lat="44.87351" lon="0.81116">
        <ele>63.58</ele>
        <time>2013-12-21T14:02:33Z</time>
      </trkpt>
      <trkpt lat="44.8731" lon="0.81121">
        <ele>62.14</ele>
        <time>2013-12-21T14:03:04Z</time>
      </trkpt>
      <trkpt lat="44.87291" lon="0.81119">
        <ele>61.18</ele>
        <time>2013-12-21T14:03:20Z</time>
      </trkpt>
      <trkpt lat="44.87271" lon="0.81127">
        <ele>62.14</ele>
        <time>2013-12-21T14:03:36Z</time>
      </trkpt>
      <trkpt lat="44.87267" lon="0.81166">
        <ele>61.18</ele>
        <time>2013-12-21T14:03:56Z</time>
      </trkpt>
      <trkpt lat="44.87256" lon="0.81258">
        <ele>63.58</ele>
        <time>2013-12-21T14:04:48Z</time>
      </trkpt>
      <trkpt lat="44.87248" lon="0.81395">
        <ele>68.87</ele>
        <time>2013-12-21T14:06:06Z</time>
      </trkpt>
      <trkpt lat="44.87246" lon="0.814">
        <ele>68.39</ele>
        <time>2013-12-21T14:06:11Z</time>
      </trkpt>
      <trkpt lat="44.87203" lon="0.81387">
        <ele>71.76</ele>
        <time>2013-12-21T14:06:45Z</time>
      </trkpt>
      <trkpt lat="44.87181" lon="0.81385">
        <ele>72.24</ele>
        <time>2013-12-21T14:07:02Z</time>
      </trkpt>
      <trkpt lat="44.87158" lon="0.81389">
        <ele>74.64</ele>
        <time>2013-12-21T14:07:22Z</time>
      </trkpt>
      <trkpt lat="44.87087" lon="0.81376">
        <ele>75.6</ele>
        <time>2013-12-21T14:08:18Z</time>
      </trkpt>
      <trkpt lat="44.87076" lon="0.81372">
        <ele>76.56</ele>
        <time>2013-12-21T14:08:27Z</time>
      </trkpt>
      <trkpt lat="44.87001" lon="0.81361">
        <ele>79.45</ele>
        <time>2013-12-21T14:09:32Z</time>
      </trkpt>
      <trkpt lat="44.86982" lon="0.81355">
        <ele>79.45</ele>
        <time>2013-12-21T14:09:48Z</time>
      </trkpt>
      <trkpt lat="44.86962" lon="0.8135">
        <ele>79.93</ele>
        <time>2013-12-21T14:10:04Z</time>
      </trkpt>
      <trkpt lat="44.86917" lon="0.81331">
        <ele>81.37</ele>
        <time>2013-12-21T14:10:41Z</time>
      </trkpt>
      <trkpt lat="44.86898" lon="0.81329">
        <ele>81.37</ele>
        <time>2013-12-21T14:10:55Z</time>
      </trkpt>
      <trkpt lat="44.86866" lon="0.81316">
        <ele>82.81</ele>
        <time>2013-12-21T14:11:21Z</time>
      </trkpt>
      <trkpt lat="44.86836" lon="0.8131">
        <ele>84.25</ele>
        <time>2013-12-21T14:11:47Z</time>
      </trkpt>
      <trkpt lat="44.86817" lon="0.81312">
        <ele>85.69</ele>
        <time>2013-12-21T14:12:03Z</time>
      </trkpt>
      <trkpt lat="44.86797" lon="0.81307">
        <ele>87.14</ele>
        <time>2013-12-21T14:12:22Z</time>
      </trkpt>
      <trkpt lat="44.86774" lon="0.81301">
        <ele>87.62</ele>
        <time>2013-12-21T14:12:38Z</time>
      </trkpt>
      <trkpt lat="44.86759" lon="0.81292">
        <ele>90.98</ele>
        <time>2013-12-21T14:12:55Z</time>
      </trkpt>
      <trkpt lat="44.86724" lon="0.81292">
        <ele>91.94</ele>
        <time>2013-12-21T14:13:23Z</time>
      </trkpt>
      <trkpt lat="44.86688" lon="0.81286">
        <ele>92.9</ele>
        <time>2013-12-21T14:13:53Z</time>
      </trkpt>
      <trkpt lat="44.86673" lon="0.81288">
        <ele>92.9</ele>
        <time>2013-12-21T14:14:07Z</time>
      </trkpt>
      <trkpt lat="44.86662" lon="0.81288">
        <ele>93.39</ele>
        <time>2013-12-21T14:14:16Z</time>
      </trkpt>
      <trkpt lat="44.86645" lon="0.81295">
        <ele>93.87</ele>
        <time>2013-12-21T14:14:31Z</time>
      </trkpt>
      <trkpt lat="44.86638" lon="0.81307">
        <ele>93.87</ele>
        <time>2013-12-21T14:14:49Z</time>
      </trkpt>
      <trkpt lat="44.86645" lon="0.81303">
        <ele>95.31</ele>
        <time>2013-12-21T14:15:58Z</time>
      </trkpt>
      <trkpt lat="44.8666" lon="0.81299">
        <ele>94.35</ele>
        <time>2013-12-21T14:16:15Z</time>
      </trkpt>
      <trkpt lat="44.86664" lon="0.81301">
        <ele>93.87</ele>
        <time>2013-12-21T14:16:58Z</time>
      </trkpt>
      <trkpt lat="44.86656" lon="0.81297">
        <ele>93.87</ele>
        <time>2013-12-21T14:17:03Z</time>
      </trkpt>
      <trkpt lat="44.86643" lon="0.81299">
        <ele>94.83</ele>
        <time>2013-12-21T14:17:15Z</time>
      </trkpt>
      <trkpt lat="44.86643" lon="0.81301">
        <ele>94.35</ele>
        <time>2013-12-21T14:17:56Z</time>
      </trkpt>
      <trkpt lat="44.86647" lon="0.81338">
        <ele>98.19</ele>
        <time>2013-12-21T14:20:26Z</time>
      </trkpt>
      <trkpt lat="44.86647" lon="0.81348">
        <ele>98.19</ele>
        <time>2013-12-21T14:20:34Z</time>
      </trkpt>
      <trkpt lat="44.86649" lon="0.8137">
        <ele>101.08</ele>
        <time>2013-12-21T14:20:50Z</time>
      </trkpt>
      <trkpt lat="44.86656" lon="0.81406">
        <ele>102.04</ele>
        <time>2013-12-21T14:21:14Z</time>
      </trkpt>
      <trkpt lat="44.8666" lon="0.81421">
        <ele>103.96</ele>
        <time>2013-12-21T14:21:24Z</time>
      </trkpt>
      <trkpt lat="44.86662" lon="0.81434">
        <ele>103.48</ele>
        <time>2013-12-21T14:21:32Z</time>
      </trkpt>
      <trkpt lat="44.86668" lon="0.81468">
        <ele>104.92</ele>
        <time>2013-12-21T14:21:55Z</time>
      </trkpt>
      <trkpt lat="44.86677" lon="0.81496">
        <ele>104.92</ele>
        <time>2013-12-21T14:22:17Z</time>
      </trkpt>
      <trkpt lat="44.86683" lon="0.81537">
        <ele>105.4</ele>
        <time>2013-12-21T14:22:42Z</time>
      </trkpt>
      <trkpt lat="44.86683" lon="0.81546">
        <ele>105.88</ele>
        <time>2013-12-21T14:22:48Z</time>
      </trkpt>
      <trkpt lat="44.86686" lon="0.81554">
        <ele>107.32</ele>
        <time>2013-12-21T14:22:54Z</time>
      </trkpt>
      <trkpt lat="44.8669" lon="0.81582">
        <ele>106.84</ele>
        <time>2013-12-21T14:23:11Z</time>
      </trkpt>
      <trkpt lat="44.86694" lon="0.81595">
        <ele>106.36</ele>
        <time>2013-12-21T14:23:19Z</time>
      </trkpt>
      <trkpt lat="44.86692" lon="0.81616">
        <ele>106.84</ele>
        <time>2013-12-21T14:23:32Z</time>
      </trkpt>
      <trkpt lat="44.86694" lon="0.8164">
        <ele>107.81</ele>
        <time>2013-12-21T14:23:50Z</time>
      </trkpt>
      <trkpt lat="44.86688" lon="0.81646">
        <ele>108.29</ele>
        <time>2013-12-21T14:23:57Z</time>
      </trkpt>
      <trkpt lat="44.86656" lon="0.81644">
        <ele>110.21</ele>
        <time>2013-12-21T14:24:24Z</time>
      </trkpt>
      <trkpt lat="44.86643" lon="0.81646">
        <ele>109.25</ele>
        <time>2013-12-21T14:24:35Z</time>
      </trkpt>
      <trkpt lat="44.86628" lon="0.81649">
        <ele>109.25</ele>
        <time>2013-12-21T14:24:47Z</time>
      </trkpt>
      <trkpt lat="44.86617" lon="0.81657">
        <ele>109.25</ele>
        <time>2013-12-21T14:24:56Z</time>
      </trkpt>
      <trkpt lat="44.86617" lon="0.817">
        <ele>111.65</ele>
        <time>2013-12-21T14:25:18Z</time>
      </trkpt>
      <trkpt lat="44.86608" lon="0.81717">
        <ele>113.09</ele>
        <time>2013-12-21T14:25:27Z</time>
      </trkpt>
      <trkpt lat="44.8657" lon="0.81741">
        <ele>111.65</ele>
        <time>2013-12-21T14:25:54Z</time>
      </trkpt>
      <trkpt lat="44.8655" lon="0.81758">
        <ele>110.69</ele>
        <time>2013-12-21T14:26:11Z</time>
      </trkpt>
      <trkpt lat="44.86548" lon="0.81771">
        <ele>109.73</ele>
        <time>2013-12-21T14:26:23Z</time>
      </trkpt>
      <trkpt lat="44.86538" lon="0.81788">
        <ele>109.25</ele>
        <time>2013-12-21T14:27:13Z</time>
      </trkpt>
      <trkpt lat="44.86527" lon="0.8182">
        <ele>107.81</ele>
        <time>2013-12-21T14:27:34Z</time>
      </trkpt>
      <trkpt lat="44.86512" lon="0.81943">
        <ele>101.08</ele>
        <time>2013-12-21T14:28:45Z</time>
      </trkpt>
      <trkpt lat="44.86497" lon="0.81955">
        <ele>99.63</ele>
        <time>2013-12-21T14:29:01Z</time>
      </trkpt>
      <trkpt lat="44.86482" lon="0.81955">
        <ele>99.63</ele>
        <time>2013-12-21T14:29:15Z</time>
      </trkpt>
      <trkpt lat="44.86467" lon="0.8196">
        <ele>98.67</ele>
        <time>2013-12-21T14:29:28Z</time>
      </trkpt>
      <trkpt lat="44.8645" lon="0.81958">
        <ele>99.15</ele>
        <time>2013-12-21T14:29:42Z</time>
      </trkpt>
      <trkpt lat="44.86428" lon="0.81962">
        <ele>99.63</ele>
        <time>2013-12-21T14:30:00Z</time>
      </trkpt>
      <trkpt lat="44.86411" lon="0.81964">
        <ele>100.6</ele>
        <time>2013-12-21T14:30:13Z</time>
      </trkpt>
      <trkpt lat="44.86398" lon="0.81994">
        <ele>103.48</ele>
        <time>2013-12-21T14:30:37Z</time>
      </trkpt>
      <trkpt lat="44.8639" lon="0.82003">
        <ele>103.48</ele>
        <time>2013-12-21T14:30:45Z</time>
      </trkpt>
      <trkpt lat="44.86387" lon="0.82009">
        <ele>104.92</ele>
        <time>2013-12-21T14:30:50Z</time>
      </trkpt>
      <trkpt lat="44.86383" lon="0.82033">
        <ele>105.4</ele>
        <time>2013-12-21T14:31:02Z</time>
      </trkpt>
      <trkpt lat="44.86372" lon="0.82041">
        <ele>105.88</ele>
        <time>2013-12-21T14:31:14Z</time>
      </trkpt>
      <trkpt lat="44.86347" lon="0.82037">
        <ele>108.77</ele>
        <time>2013-12-21T14:31:34Z</time>
      </trkpt>
      <trkpt lat="44.8634" lon="0.82046">
        <ele>108.29</ele>
        <time>2013-12-21T14:31:53Z</time>
      </trkpt>
      <trkpt lat="44.86334" lon="0.82041">
        <ele>109.25</ele>
        <time>2013-12-21T14:32:45Z</time>
      </trkpt>
      <trkpt lat="44.86323" lon="0.82043">
        <ele>109.73</ele>
        <time>2013-12-21T14:33:11Z</time>
      </trkpt>
      <trkpt lat="44.86282" lon="0.82031">
        <ele>113.57</ele>
        <time>2013-12-21T14:34:01Z</time>
      </trkpt>
      <trkpt lat="44.86241" lon="0.82031">
        <ele>117.42</ele>
        <time>2013-12-21T14:34:41Z</time>
      </trkpt>
      <trkpt lat="44.8622" lon="0.82037">
        <ele>116.94</ele>
        <time>2013-12-21T14:34:57Z</time>
      </trkpt>
      <trkpt lat="44.86166" lon="0.82043">
        <ele>116.46</ele>
        <time>2013-12-21T14:35:40Z</time>
      </trkpt>
      <trkpt lat="44.86138" lon="0.82056">
        <ele>113.57</ele>
        <time>2013-12-21T14:36:02Z</time>
      </trkpt>
      <trkpt lat="44.86106" lon="0.82065">
        <ele>108.77</ele>
        <time>2013-12-21T14:36:29Z</time>
      </trkpt>
      <trkpt lat="44.86091" lon="0.82071">
        <ele>106.84</ele>
        <time>2013-12-21T14:36:41Z</time>
      </trkpt>
      <trkpt lat="44.86068" lon="0.82076">
        <ele>103</ele>
        <time>2013-12-21T14:37:02Z</time>
      </trkpt>
      <trkpt lat="44.86048" lon="0.82084">
        <ele>103.48</ele>
        <time>2013-12-21T14:37:18Z</time>
      </trkpt>
      <trkpt lat="44.86027" lon="0.82099">
        <ele>105.4</ele>
        <time>2013-12-21T14:37:49Z</time>
      </trkpt>
      <trkpt lat="44.86018" lon="0.82097">
        <ele>107.81</ele>
        <time>2013-12-21T14:37:59Z</time>
      </trkpt>
      <trkpt lat="44.86005" lon="0.82101">
        <ele>109.73</ele>
        <time>2013-12-21T14:38:16Z</time>
      </trkpt>
      <trkpt lat="44.85988" lon="0.82097">
        <ele>113.09</ele>
        <time>2013-12-21T14:38:32Z</time>
      </trkpt>
      <trkpt lat="44.85913" lon="0.82114">
        <ele>118.38</ele>
        <time>2013-12-21T14:39:36Z</time>
      </trkpt>
      <trkpt lat="44.859" lon="0.82119">
        <ele>119.34</ele>
        <time>2013-12-21T14:39:48Z</time>
      </trkpt>
      <trkpt lat="44.85892" lon="0.82125">
        <ele>120.78</ele>
        <time>2013-12-21T14:40:00Z</time>
      </trkpt>
      <trkpt lat="44.8589" lon="0.82127">
        <ele>117.9</ele>
        <time>2013-12-21T14:40:02Z</time>
      </trkpt>
      <trkpt lat="44.8589" lon="0.82127">
        <ele>119.82</ele>
        <time>2013-12-21T14:40:04Z</time>
      </trkpt>
      <trkpt lat="44.85879" lon="0.82116">
        <ele>118.38</ele>
        <time>2013-12-21T14:41:56Z</time>
      </trkpt>
      <trkpt lat="44.8587" lon="0.82125">
        <ele>118.86</ele>
        <time>2013-12-21T14:42:13Z</time>
      </trkpt>
      <trkpt lat="44.85868" lon="0.82136">
        <ele>118.86</ele>
        <time>2013-12-21T14:42:33Z</time>
      </trkpt>
      <trkpt lat="44.8584" lon="0.82151">
        <ele>116.94</ele>
        <time>2013-12-21T14:43:04Z</time>
      </trkpt>
      <trkpt lat="44.85829" lon="0.82164">
        <ele>115.01</ele>
        <time>2013-12-21T14:43:16Z</time>
      </trkpt>
      <trkpt lat="44.85817" lon="0.82172">
        <ele>114.05</ele>
        <time>2013-12-21T14:43:30Z</time>
      </trkpt>
      <trkpt lat="44.85804" lon="0.82189">
        <ele>112.61</ele>
        <time>2013-12-21T14:43:45Z</time>
      </trkpt>
      <trkpt lat="44.85787" lon="0.82204">
        <ele>112.13</ele>
        <time>2013-12-21T14:44:03Z</time>
      </trkpt>
      <trkpt lat="44.8572" lon="0.82245">
        <ele>109.73</ele>
        <time>2013-12-21T14:45:05Z</time>
      </trkpt>
      <trkpt lat="44.85694" lon="0.82258">
        <ele>110.21</ele>
        <time>2013-12-21T14:45:46Z</time>
      </trkpt>
      <trkpt lat="44.85673" lon="0.82256">
        <ele>114.53</ele>
        <time>2013-12-21T14:46:15Z</time>
      </trkpt>
      <trkpt lat="44.85658" lon="0.82269">
        <ele>116.94</ele>
        <time>2013-12-21T14:46:31Z</time>
      </trkpt>
      <trkpt lat="44.85643" lon="0.82275">
        <ele>121.26</ele>
        <time>2013-12-21T14:46:51Z</time>
      </trkpt>
      <trkpt lat="44.85617" lon="0.82282">
        <ele>126.55</ele>
        <time>2013-12-21T14:47:24Z</time>
      </trkpt>
      <trkpt lat="44.85608" lon="0.8229">
        <ele>128.47</ele>
        <time>2013-12-21T14:47:33Z</time>
      </trkpt>
      <trkpt lat="44.85589" lon="0.82295">
        <ele>130.4</ele>
        <time>2013-12-21T14:47:53Z</time>
      </trkpt>
      <trkpt lat="44.85576" lon="0.82301">
        <ele>131.84</ele>
        <time>2013-12-21T14:48:08Z</time>
      </trkpt>
      <trkpt lat="44.85557" lon="0.82318">
        <ele>131.84</ele>
        <time>2013-12-21T14:48:26Z</time>
      </trkpt>
      <trkpt lat="44.85531" lon="0.82363">
        <ele>129.43</ele>
        <time>2013-12-21T14:49:03Z</time>
      </trkpt>
      <trkpt lat="44.85516" lon="0.82382">
        <ele>126.55</ele>
        <time>2013-12-21T14:49:22Z</time>
      </trkpt>
      <trkpt lat="44.85516" lon="0.82389">
        <ele>126.07</ele>
        <time>2013-12-21T14:49:25Z</time>
      </trkpt>
      <trkpt lat="44.85508" lon="0.82406">
        <ele>124.15</ele>
        <time>2013-12-21T14:49:40Z</time>
      </trkpt>
      <trkpt lat="44.85499" lon="0.82417">
        <ele>121.26</ele>
        <time>2013-12-21T14:49:53Z</time>
      </trkpt>
      <trkpt lat="44.85471" lon="0.8246">
        <ele>114.05</ele>
        <time>2013-12-21T14:50:36Z</time>
      </trkpt>
      <trkpt lat="44.85448" lon="0.82516">
        <ele>105.88</ele>
        <time>2013-12-21T14:51:40Z</time>
      </trkpt>
      <trkpt lat="44.8545" lon="0.82531">
        <ele>103.96</ele>
        <time>2013-12-21T14:52:09Z</time>
      </trkpt>
      <trkpt lat="44.85441" lon="0.82531">
        <ele>104.44</ele>
        <time>2013-12-21T14:52:23Z</time>
      </trkpt>
      <trkpt lat="44.85437" lon="0.82537">
        <ele>102.52</ele>
        <time>2013-12-21T14:52:39Z</time>
      </trkpt>
      <trkpt lat="44.85424" lon="0.82548">
        <ele>101.56</ele>
        <time>2013-12-21T14:53:08Z</time>
      </trkpt>
      <trkpt lat="44.85428" lon="0.82558">
        <ele>100.6</ele>
        <time>2013-12-21T14:53:27Z</time>
      </trkpt>
      <trkpt lat="44.85426" lon="0.82552">
        <ele>100.6</ele>
        <time>2013-12-21T14:53:46Z</time>
      </trkpt>
      <trkpt lat="44.8542" lon="0.82554">
        <ele>99.15</ele>
        <time>2013-12-21T14:54:09Z</time>
      </trkpt>
      <trkpt lat="44.85407" lon="0.82593">
        <ele>99.15</ele>
        <time>2013-12-21T14:54:50Z</time>
      </trkpt>
      <trkpt lat="44.8539" lon="0.82616">
        <ele>101.08</ele>
        <time>2013-12-21T14:55:11Z</time>
      </trkpt>
      <trkpt lat="44.8537" lon="0.82659">
        <ele>100.6</ele>
        <time>2013-12-21T14:55:53Z</time>
      </trkpt>
      <trkpt lat="44.85355" lon="0.82672">
        <ele>100.11</ele>
        <time>2013-12-21T14:56:08Z</time>
      </trkpt>
      <trkpt lat="44.8534" lon="0.82696">
        <ele>102.52</ele>
        <time>2013-12-21T14:56:27Z</time>
      </trkpt>
      <trkpt lat="44.85332" lon="0.82722">
        <ele>102.52</ele>
        <time>2013-12-21T14:56:45Z</time>
      </trkpt>
      <trkpt lat="44.85319" lon="0.82741">
        <ele>103.48</ele>
        <time>2013-12-21T14:57:02Z</time>
      </trkpt>
      <trkpt lat="44.85299" lon="0.82771">
        <ele>106.36</ele>
        <time>2013-12-21T14:57:29Z</time>
      </trkpt>
      <trkpt lat="44.85284" lon="0.82801">
        <ele>109.73</ele>
        <time>2013-12-21T14:57:51Z</time>
      </trkpt>
      <trkpt lat="44.85272" lon="0.82809">
        <ele>110.69</ele>
        <time>2013-12-21T14:58:08Z</time>
      </trkpt>
      <trkpt lat="44.85244" lon="0.82848">
        <ele>116.94</ele>
        <time>2013-12-21T14:58:52Z</time>
      </trkpt>
      <trkpt lat="44.85233" lon="0.8287">
        <ele>118.38</ele>
        <time>2013-12-21T14:59:12Z</time>
      </trkpt>
      <trkpt lat="44.85226" lon="0.82876">
        <ele>117.9</ele>
        <time>2013-12-21T14:59:51Z</time>
      </trkpt>
      <trkpt lat="44.85226" lon="0.82882">
        <ele>116.94</ele>
        <time>2013-12-21T15:00:07Z</time>
      </trkpt>
      <trkpt lat="44.85224" lon="0.82887">
        <ele>117.9</ele>
        <time>2013-12-21T15:00:50Z</time>
      </trkpt>
      <trkpt lat="44.85224" lon="0.82876">
        <ele>117.42</ele>
        <time>2013-12-21T15:01:56Z</time>
      </trkpt>
      <trkpt lat="44.85222" lon="0.8288">
        <ele>115.5</ele>
        <time>2013-12-21T15:07:15Z</time>
      </trkpt>
      <trkpt lat="44.85218" lon="0.82891">
        <ele>115.01</ele>
        <time>2013-12-21T15:09:39Z</time>
      </trkpt>
      <trkpt lat="44.85211" lon="0.829">
        <ele>115.01</ele>
        <time>2013-12-21T15:09:49Z</time>
      </trkpt>
      <trkpt lat="44.85207" lon="0.82895">
        <ele>114.53</ele>
        <time>2013-12-21T15:09:55Z</time>
      </trkpt>
      <trkpt lat="44.85199" lon="0.8288">
        <ele>115.98</ele>
        <time>2013-12-21T15:10:09Z</time>
      </trkpt>
      <trkpt lat="44.85199" lon="0.8288">
        <ele>114.05</ele>
        <time>2013-12-21T15:10:10Z</time>
      </trkpt>
      <trkpt lat="44.85188" lon="0.8287">
        <ele>114.05</ele>
        <time>2013-12-21T15:10:23Z</time>
      </trkpt>
      <trkpt lat="44.85184" lon="0.82861">
        <ele>115.01</ele>
        <time>2013-12-21T15:10:32Z</time>
      </trkpt>
      <trkpt lat="44.85171" lon="0.8285">
        <ele>114.53</ele>
        <time>2013-12-21T15:10:48Z</time>
      </trkpt>
      <trkpt lat="44.85156" lon="0.82825">
        <ele>114.05</ele>
        <time>2013-12-21T15:11:15Z</time>
      </trkpt>
      <trkpt lat="44.85145" lon="0.82816">
        <ele>113.57</ele>
        <time>2013-12-21T15:11:26Z</time>
      </trkpt>
      <trkpt lat="44.85141" lon="0.82805">
        <ele>114.05</ele>
        <time>2013-12-21T15:11:35Z</time>
      </trkpt>
      <trkpt lat="44.85128" lon="0.82794">
        <ele>113.09</ele>
        <time>2013-12-21T15:11:48Z</time>
      </trkpt>
      <trkpt lat="44.85117" lon="0.82782">
        <ele>113.09</ele>
        <time>2013-12-21T15:12:00Z</time>
      </trkpt>
      <trkpt lat="44.85102" lon="0.82775">
        <ele>111.17</ele>
        <time>2013-12-21T15:12:15Z</time>
      </trkpt>
      <trkpt lat="44.85089" lon="0.82764">
        <ele>109.25</ele>
        <time>2013-12-21T15:12:28Z</time>
      </trkpt>
      <trkpt lat="44.85074" lon="0.82771">
        <ele>107.32</ele>
        <time>2013-12-21T15:12:41Z</time>
      </trkpt>
      <trkpt lat="44.85066" lon="0.82782">
        <ele>105.88</ele>
        <time>2013-12-21T15:12:54Z</time>
      </trkpt>
      <trkpt lat="44.85057" lon="0.82803">
        <ele>102.52</ele>
        <time>2013-12-21T15:13:12Z</time>
      </trkpt>
      <trkpt lat="44.85051" lon="0.82809">
        <ele>101.56</ele>
        <time>2013-12-21T15:13:20Z</time>
      </trkpt>
      <trkpt lat="44.85038" lon="0.82833">
        <ele>95.79</ele>
        <time>2013-12-21T15:13:52Z</time>
      </trkpt>
      <trkpt lat="44.85044" lon="0.82855">
        <ele>94.83</ele>
        <time>2013-12-21T15:14:06Z</time>
      </trkpt>
      <trkpt lat="44.85033" lon="0.82882">
        <ele>90.98</ele>
        <time>2013-12-21T15:14:39Z</time>
      </trkpt>
      <trkpt lat="44.85029" lon="0.82882">
        <ele>89.06</ele>
        <time>2013-12-21T15:14:50Z</time>
      </trkpt>
      <trkpt lat="44.85016" lon="0.8285">
        <ele>87.14</ele>
        <time>2013-12-21T15:15:58Z</time>
      </trkpt>
      <trkpt lat="44.8501" lon="0.82799">
        <ele>86.66</ele>
        <time>2013-12-21T15:16:34Z</time>
      </trkpt>
      <trkpt lat="44.84995" lon="0.82743">
        <ele>86.18</ele>
        <time>2013-12-21T15:17:11Z</time>
      </trkpt>
      <trkpt lat="44.84993" lon="0.82672">
        <ele>86.66</ele>
        <time>2013-12-21T15:17:50Z</time>
      </trkpt>
      <trkpt lat="44.84993" lon="0.82649">
        <ele>86.18</ele>
        <time>2013-12-21T15:18:05Z</time>
      </trkpt>
      <trkpt lat="44.85001" lon="0.82625">
        <ele>85.69</ele>
        <time>2013-12-21T15:18:20Z</time>
      </trkpt>
      <trkpt lat="44.85014" lon="0.82599">
        <ele>85.69</ele>
        <time>2013-12-21T15:18:39Z</time>
      </trkpt>
      <trkpt lat="44.85027" lon="0.82582">
        <ele>84.73</ele>
        <time>2013-12-21T15:18:55Z</time>
      </trkpt>
      <trkpt lat="44.85061" lon="0.82561">
        <ele>85.21</ele>
        <time>2013-12-21T15:19:26Z</time>
      </trkpt>
      <trkpt lat="44.85078" lon="0.82548">
        <ele>84.73</ele>
        <time>2013-12-21T15:19:41Z</time>
      </trkpt>
      <trkpt lat="44.85091" lon="0.82531">
        <ele>84.73</ele>
        <time>2013-12-21T15:19:56Z</time>
      </trkpt>
      <trkpt lat="44.85113" lon="0.82492">
        <ele>83.29</ele>
        <time>2013-12-21T15:20:21Z</time>
      </trkpt>
      <trkpt lat="44.85145" lon="0.8246">
        <ele>82.81</ele>
        <time>2013-12-21T15:20:53Z</time>
      </trkpt>
      <trkpt lat="44.85184" lon="0.82449">
        <ele>81.85</ele>
        <time>2013-12-21T15:21:28Z</time>
      </trkpt>
      <trkpt lat="44.85222" lon="0.82447">
        <ele>82.33</ele>
        <time>2013-12-21T15:22:02Z</time>
      </trkpt>
      <trkpt lat="44.85235" lon="0.82438">
        <ele>82.33</ele>
        <time>2013-12-21T15:22:12Z</time>
      </trkpt>
      <trkpt lat="44.85254" lon="0.82438">
        <ele>80.89</ele>
        <time>2013-12-21T15:22:26Z</time>
      </trkpt>
      <trkpt lat="44.85291" lon="0.8243">
        <ele>80.41</ele>
        <time>2013-12-21T15:22:56Z</time>
      </trkpt>
      <trkpt lat="44.85299" lon="0.82425">
        <ele>80.89</ele>
        <time>2013-12-21T15:23:10Z</time>
      </trkpt>
      <trkpt lat="44.85302" lon="0.82419">
        <ele>80.41</ele>
        <time>2013-12-21T15:23:26Z</time>
      </trkpt>
      <trkpt lat="44.85295" lon="0.82372">
        <ele>78.48</ele>
        <time>2013-12-21T15:23:53Z</time>
      </trkpt>
      <trkpt lat="44.85284" lon="0.82333">
        <ele>78.48</ele>
        <time>2013-12-21T15:24:17Z</time>
      </trkpt>
      <trkpt lat="44.85289" lon="0.82241">
        <ele>81.37</ele>
        <time>2013-12-21T15:25:11Z</time>
      </trkpt>
      <trkpt lat="44.85293" lon="0.82226">
        <ele>79.45</ele>
        <time>2013-12-21T15:25:23Z</time>
      </trkpt>
      <trkpt lat="44.85314" lon="0.82196">
        <ele>78.97</ele>
        <time>2013-12-21T15:25:51Z</time>
      </trkpt>
      <trkpt lat="44.85334" lon="0.82153">
        <ele>77.04</ele>
        <time>2013-12-21T15:26:24Z</time>
      </trkpt>
      <trkpt lat="44.8534" lon="0.8214">
        <ele>77.04</ele>
        <time>2013-12-21T15:26:34Z</time>
      </trkpt>
      <trkpt lat="44.85364" lon="0.82078">
        <ele>77.04</ele>
        <time>2013-12-21T15:27:13Z</time>
      </trkpt>
      <trkpt lat="44.85366" lon="0.82056">
        <ele>77.04</ele>
        <time>2013-12-21T15:27:27Z</time>
      </trkpt>
      <trkpt lat="44.85405" lon="0.8196">
        <ele>78.48</ele>
        <time>2013-12-21T15:28:34Z</time>
      </trkpt>
      <trkpt lat="44.85405" lon="0.81951">
        <ele>78.97</ele>
        <time>2013-12-21T15:28:40Z</time>
      </trkpt>
      <trkpt lat="44.8539" lon="0.81947">
        <ele>80.89</ele>
        <time>2013-12-21T15:28:54Z</time>
      </trkpt>
      <trkpt lat="44.85381" lon="0.81945">
        <ele>80.41</ele>
        <time>2013-12-21T15:29:02Z</time>
      </trkpt>
      <trkpt lat="44.85377" lon="0.81945">
        <ele>82.33</ele>
        <time>2013-12-21T15:29:05Z</time>
      </trkpt>
      <trkpt lat="44.8534" lon="0.8193">
        <ele>84.25</ele>
        <time>2013-12-21T15:29:41Z</time>
      </trkpt>
      <trkpt lat="44.85325" lon="0.81925">
        <ele>86.66</ele>
        <time>2013-12-21T15:29:58Z</time>
      </trkpt>
      <trkpt lat="44.85276" lon="0.81906">
        <ele>88.58</ele>
        <time>2013-12-21T15:30:48Z</time>
      </trkpt>
      <trkpt lat="44.85246" lon="0.81891">
        <ele>90.02</ele>
        <time>2013-12-21T15:31:30Z</time>
      </trkpt>
      <trkpt lat="44.85233" lon="0.81883">
        <ele>90.5</ele>
        <time>2013-12-21T15:31:44Z</time>
      </trkpt>
      <trkpt lat="44.85207" lon="0.8185">
        <ele>93.39</ele>
        <time>2013-12-21T15:32:12Z</time>
      </trkpt>
      <trkpt lat="44.85171" lon="0.81799">
        <ele>100.11</ele>
        <time>2013-12-21T15:33:01Z</time>
      </trkpt>
      <trkpt lat="44.85173" lon="0.81775">
        <ele>101.56</ele>
        <time>2013-12-21T15:34:17Z</time>
      </trkpt>
      <trkpt lat="44.85216" lon="0.81726">
        <ele>100.6</ele>
        <time>2013-12-21T15:35:05Z</time>
      </trkpt>
      <trkpt lat="44.8528" lon="0.8167">
        <ele>100.6</ele>
        <time>2013-12-21T15:36:04Z</time>
      </trkpt>
      <trkpt lat="44.85297" lon="0.81664">
        <ele>99.63</ele>
        <time>2013-12-21T15:36:19Z</time>
      </trkpt>
      <trkpt lat="44.85336" lon="0.81631">
        <ele>100.6</ele>
        <time>2013-12-21T15:36:56Z</time>
      </trkpt>
      <trkpt lat="44.85351" lon="0.81625">
        <ele>100.6</ele>
        <time>2013-12-21T15:37:10Z</time>
      </trkpt>
      <trkpt lat="44.85383" lon="0.81595">
        <ele>102.04</ele>
        <time>2013-12-21T15:37:42Z</time>
      </trkpt>
      <trkpt lat="44.8542" lon="0.81554">
        <ele>101.56</ele>
        <time>2013-12-21T15:38:17Z</time>
      </trkpt>
      <trkpt lat="44.85441" lon="0.8152">
        <ele>101.08</ele>
        <time>2013-12-21T15:38:43Z</time>
      </trkpt>
      <trkpt lat="44.85471" lon="0.81481">
        <ele>100.6</ele>
        <time>2013-12-21T15:39:15Z</time>
      </trkpt>
      <trkpt lat="44.8549" lon="0.81464">
        <ele>98.67</ele>
        <time>2013-12-21T15:39:33Z</time>
      </trkpt>
      <trkpt lat="44.85542" lon="0.81413">
        <ele>95.79</ele>
        <time>2013-12-21T15:40:24Z</time>
      </trkpt>
      <trkpt lat="44.85538" lon="0.81389">
        <ele>92.42</ele>
        <time>2013-12-21T15:40:38Z</time>
      </trkpt>
      <trkpt lat="44.85525" lon="0.81344">
        <ele>86.66</ele>
        <time>2013-12-21T15:41:05Z</time>
      </trkpt>
      <trkpt lat="44.8552" lon="0.81327">
        <ele>83.29</ele>
        <time>2013-12-21T15:41:15Z</time>
      </trkpt>
      <trkpt lat="44.85516" lon="0.81314">
        <ele>83.77</ele>
        <time>2013-12-21T15:41:24Z</time>
      </trkpt>
      <trkpt lat="44.8551" lon="0.81286">
        <ele>81.85</ele>
        <time>2013-12-21T15:41:43Z</time>
      </trkpt>
      <trkpt lat="44.85508" lon="0.81275">
        <ele>78.97</ele>
        <time>2013-12-21T15:41:50Z</time>
      </trkpt>
      <trkpt lat="44.85503" lon="0.81265">
        <ele>78.48</ele>
        <time>2013-12-21T15:41:57Z</time>
      </trkpt>
      <trkpt lat="44.85503" lon="0.8126">
        <ele>76.56</ele>
        <time>2013-12-21T15:42:01Z</time>
      </trkpt>
      <trkpt lat="44.85531" lon="0.81243">
        <ele>75.6</ele>
        <time>2013-12-21T15:42:26Z</time>
      </trkpt>
      <trkpt lat="44.85546" lon="0.81232">
        <ele>73.68</ele>
        <time>2013-12-21T15:42:40Z</time>
      </trkpt>
      <trkpt lat="44.85555" lon="0.81224">
        <ele>73.68</ele>
        <time>2013-12-21T15:42:50Z</time>
      </trkpt>
      <trkpt lat="44.85555" lon="0.81222">
        <ele>72.24</ele>
        <time>2013-12-21T15:42:53Z</time>
      </trkpt>
      <trkpt lat="44.85555" lon="0.81211">
        <ele>72.72</ele>
        <time>2013-12-21T15:43:00Z</time>
      </trkpt>
      <trkpt lat="44.85546" lon="0.81181">
        <ele>71.27</ele>
        <time>2013-12-21T15:43:42Z</time>
      </trkpt>
      <trkpt lat="44.8554" lon="0.81181">
        <ele>70.79</ele>
        <time>2013-12-21T15:43:47Z</time>
      </trkpt>
      <trkpt lat="44.85527" lon="0.81194">
        <ele>70.31</ele>
        <time>2013-12-21T15:44:08Z</time>
      </trkpt>
    </trkseg>
  </trk>
</gpx>